sensor_id;sensor_type;location;lat;lon;timestamp;temperature;humidity
19941;DHT22;10132;50.864;5.176;2022-09-09T00:01:53;15.70;99.90
19941;DHT22;10132;50.864;5.176;2022-09-09T00:04:00;15.70;99.90
19941;DHT22;10132;50.864;5.176;2022-09-09T00:06:09;15.60;99.90
19941;DHT22;10132;50.864;5.176;2022-09-09T00:08:17;15.50;99.90
19941;DHT22;10132;50.864;5.176;2022-09-09T00:10:23;15.60;99.90
19941;DHT22;10132;50.864;5.176;2022-09-09T00:12:33;15.60;99.90
19941;DHT22;10132;50.864;5.176;2022-09-09T00:14:42;15.60;99.90
19941;DHT22;10132;50.864;5.176;2022-09-09T00:16:50;15.50;99.90
19941;DHT22;10132;50.864;5.176;2022-09-09T00:19:00;15.50;99.90
19941;DHT22;10132;50.864;5.176;2022-09-09T00:21:10;15.50;99.90
19941;DHT22;10132;50.864;5.176;2022-09-09T00:23:16;15.50;99.90
19941;DHT22;10132;50.864;5.176;2022-09-09T00:25:26;15.50;99.90
19941;DHT22;10132;50.864;5.176;2022-09-09T00:27:32;15.50;99.90
19941;DHT22;10132;50.864;5.176;2022-09-09T00:29:43;15.50;99.90
19941;DHT22;10132;50.864;5.176;2022-09-09T00:31:46;15.50;99.90
19941;DHT22;10132;50.864;5.176;2022-09-09T00:33:49;15.50;99.90
19941;DHT22;10132;50.864;5.176;2022-09-09T00:35:54;15.50;99.90
19941;DHT22;10132;50.864;5.176;2022-09-09T00:38:03;15.50;99.90
19941;DHT22;10132;50.864;5.176;2022-09-09T00:40:16;15.50;99.90
19941;DHT22;10132;50.864;5.176;2022-09-09T00:42:24;15.40;99.90
19941;DHT22;10132;50.864;5.176;2022-09-09T00:44:30;15.40;99.90
19941;DHT22;10132;50.864;5.176;2022-09-09T00:46:56;15.40;99.90
19941;DHT22;10132;50.864;5.176;2022-09-09T00:49:06;15.20;99.90
19941;DHT22;10132;50.864;5.176;2022-09-09T00:51:17;15.20;99.90
19941;DHT22;10132;50.864;5.176;2022-09-09T00:53:35;15.20;99.90
19941;DHT22;10132;50.864;5.176;2022-09-09T00:55:45;15.20;99.90
19941;DHT22;10132;50.864;5.176;2022-09-09T00:57:51;15.20;99.90
19941;DHT22;10132;50.864;5.176;2022-09-09T01:00:16;15.30;99.90
19941;DHT22;10132;50.864;5.176;2022-09-09T01:02:26;15.20;99.90
19941;DHT22;10132;50.864;5.176;2022-09-09T01:04:33;15.20;99.90
19941;DHT22;10132;50.864;5.176;2022-09-09T01:06:37;15.20;99.90
19941;DHT22;10132;50.864;5.176;2022-09-09T01:09:14;15.30;99.90
19941;DHT22;10132;50.864;5.176;2022-09-09T01:11:21;15.40;99.90
19941;DHT22;10132;50.864;5.176;2022-09-09T01:13:25;15.50;99.90
19941;DHT22;10132;50.864;5.176;2022-09-09T01:15:31;15.60;99.90
19941;DHT22;10132;50.864;5.176;2022-09-09T01:17:44;15.70;99.90
19941;DHT22;10132;50.864;5.176;2022-09-09T01:19:59;15.70;99.90
19941;DHT22;10132;50.864;5.176;2022-09-09T01:22:09;15.70;99.90
19941;DHT22;10132;50.864;5.176;2022-09-09T01:24:22;15.70;99.90
19941;DHT22;10132;50.864;5.176;2022-09-09T01:26:30;15.70;99.90
19941;DHT22;10132;50.864;5.176;2022-09-09T01:28:35;15.60;99.90
19941;DHT22;10132;50.864;5.176;2022-09-09T01:30:39;15.60;99.90
19941;DHT22;10132;50.864;5.176;2022-09-09T01:32:43;15.60;99.90
19941;DHT22;10132;50.864;5.176;2022-09-09T01:34:46;15.60;99.90
19941;DHT22;10132;50.864;5.176;2022-09-09T01:36:51;15.50;99.90
19941;DHT22;10132;50.864;5.176;2022-09-09T01:38:55;15.50;99.90
19941;DHT22;10132;50.864;5.176;2022-09-09T01:40:57;15.50;99.90
19941;DHT22;10132;50.864;5.176;2022-09-09T01:43:01;15.50;99.90
19941;DHT22;10132;50.864;5.176;2022-09-09T01:45:04;15.50;99.90
19941;DHT22;10132;50.864;5.176;2022-09-09T01:47:07;15.60;99.90
19941;DHT22;10132;50.864;5.176;2022-09-09T01:49:09;15.50;99.90
19941;DHT22;10132;50.864;5.176;2022-09-09T01:51:13;15.70;99.90
19941;DHT22;10132;50.864;5.176;2022-09-09T01:53:15;15.60;99.90
19941;DHT22;10132;50.864;5.176;2022-09-09T01:55:23;15.70;99.90
19941;DHT22;10132;50.864;5.176;2022-09-09T01:57:33;15.70;99.90
19941;DHT22;10132;50.864;5.176;2022-09-09T01:59:45;15.60;99.90
19941;DHT22;10132;50.864;5.176;2022-09-09T02:01:57;15.70;99.90
19941;DHT22;10132;50.864;5.176;2022-09-09T02:04:10;15.70;99.90
19941;DHT22;10132;50.864;5.176;2022-09-09T02:06:25;15.70;99.90
19941;DHT22;10132;50.864;5.176;2022-09-09T02:08:33;15.70;99.90
19941;DHT22;10132;50.864;5.176;2022-09-09T02:10:45;15.70;99.90
19941;DHT22;10132;50.864;5.176;2022-09-09T02:12:52;15.70;99.90
19941;DHT22;10132;50.864;5.176;2022-09-09T02:15:03;15.70;99.90
19941;DHT22;10132;50.864;5.176;2022-09-09T02:17:08;15.60;99.90
19941;DHT22;10132;50.864;5.176;2022-09-09T02:19:13;15.60;99.90
19941;DHT22;10132;50.864;5.176;2022-09-09T02:21:17;15.70;99.90
19941;DHT22;10132;50.864;5.176;2022-09-09T02:23:19;15.70;99.90
19941;DHT22;10132;50.864;5.176;2022-09-09T02:25:24;15.60;99.90
19941;DHT22;10132;50.864;5.176;2022-09-09T02:27:27;15.70;99.90
19941;DHT22;10132;50.864;5.176;2022-09-09T02:29:33;15.60;99.90
19941;DHT22;10132;50.864;5.176;2022-09-09T02:31:38;15.70;99.90
19941;DHT22;10132;50.864;5.176;2022-09-09T02:33:45;15.70;99.90
19941;DHT22;10132;50.864;5.176;2022-09-09T02:35:48;15.60;99.90
19941;DHT22;10132;50.864;5.176;2022-09-09T02:37:53;15.50;99.90
19941;DHT22;10132;50.864;5.176;2022-09-09T02:39:57;15.60;99.90
19941;DHT22;10132;50.864;5.176;2022-09-09T02:41:59;15.60;99.90
19941;DHT22;10132;50.864;5.176;2022-09-09T02:44:02;15.50;99.90
19941;DHT22;10132;50.864;5.176;2022-09-09T02:46:14;15.50;99.90
19941;DHT22;10132;50.864;5.176;2022-09-09T02:48:28;15.40;99.90
19941;DHT22;10132;50.864;5.176;2022-09-09T02:50:34;15.40;99.90
19941;DHT22;10132;50.864;5.176;2022-09-09T02:52:45;15.40;99.90
19941;DHT22;10132;50.864;5.176;2022-09-09T02:54:50;15.40;99.90
19941;DHT22;10132;50.864;5.176;2022-09-09T02:57:00;15.50;99.90
19941;DHT22;10132;50.864;5.176;2022-09-09T02:59:03;15.50;99.90
19941;DHT22;10132;50.864;5.176;2022-09-09T03:01:05;15.50;99.90
19941;DHT22;10132;50.864;5.176;2022-09-09T03:03:09;15.40;99.90
19941;DHT22;10132;50.864;5.176;2022-09-09T03:05:12;15.40;99.90
19941;DHT22;10132;50.864;5.176;2022-09-09T03:07:14;15.40;99.90
19941;DHT22;10132;50.864;5.176;2022-09-09T03:09:17;15.40;99.90
19941;DHT22;10132;50.864;5.176;2022-09-09T03:11:19;15.40;99.90
19941;DHT22;10132;50.864;5.176;2022-09-09T03:13:21;15.50;99.90
19941;DHT22;10132;50.864;5.176;2022-09-09T03:15:23;15.40;99.90
19941;DHT22;10132;50.864;5.176;2022-09-09T03:17:30;15.50;99.90
19941;DHT22;10132;50.864;5.176;2022-09-09T03:19:32;15.50;99.90
19941;DHT22;10132;50.864;5.176;2022-09-09T03:21:38;15.60;99.90
19941;DHT22;10132;50.864;5.176;2022-09-09T03:23:40;15.70;99.90
19941;DHT22;10132;50.864;5.176;2022-09-09T03:25:46;15.70;99.90
19941;DHT22;10132;50.864;5.176;2022-09-09T03:27:48;15.70;99.90
19941;DHT22;10132;50.864;5.176;2022-09-09T03:29:50;15.60;99.90
19941;DHT22;10132;50.864;5.176;2022-09-09T03:31:52;15.60;99.90
19941;DHT22;10132;50.864;5.176;2022-09-09T03:33:54;15.70;99.90
19941;DHT22;10132;50.864;5.176;2022-09-09T03:35:56;15.70;99.90
19941;DHT22;10132;50.864;5.176;2022-09-09T03:37:59;15.60;99.90
19941;DHT22;10132;50.864;5.176;2022-09-09T03:40:03;15.50;99.90
19941;DHT22;10132;50.864;5.176;2022-09-09T03:42:06;15.50;99.90
19941;DHT22;10132;50.864;5.176;2022-09-09T03:44:08;15.40;99.90
19941;DHT22;10132;50.864;5.176;2022-09-09T03:46:10;15.40;99.90
19941;DHT22;10132;50.864;5.176;2022-09-09T03:48:12;15.40;99.90
19941;DHT22;10132;50.864;5.176;2022-09-09T03:50:14;15.40;99.90
19941;DHT22;10132;50.864;5.176;2022-09-09T03:52:16;15.40;99.90
19941;DHT22;10132;50.864;5.176;2022-09-09T03:54:20;15.50;99.90
19941;DHT22;10132;50.864;5.176;2022-09-09T03:56:22;15.50;99.90
19941;DHT22;10132;50.864;5.176;2022-09-09T03:58:24;15.40;99.90
19941;DHT22;10132;50.864;5.176;2022-09-09T04:00:27;15.40;99.90
19941;DHT22;10132;50.864;5.176;2022-09-09T04:02:29;15.40;99.90
19941;DHT22;10132;50.864;5.176;2022-09-09T04:04:31;15.40;99.90
19941;DHT22;10132;50.864;5.176;2022-09-09T04:06:33;15.40;99.90
19941;DHT22;10132;50.864;5.176;2022-09-09T04:08:35;15.40;99.90
19941;DHT22;10132;50.864;5.176;2022-09-09T04:10:40;15.40;99.90
19941;DHT22;10132;50.864;5.176;2022-09-09T04:12:42;15.30;99.90
19941;DHT22;10132;50.864;5.176;2022-09-09T04:14:44;15.30;99.90
19941;DHT22;10132;50.864;5.176;2022-09-09T04:16:46;15.30;99.90
19941;DHT22;10132;50.864;5.176;2022-09-09T04:18:48;15.30;99.90
19941;DHT22;10132;50.864;5.176;2022-09-09T04:20:51;15.40;99.90
19941;DHT22;10132;50.864;5.176;2022-09-09T04:22:53;15.30;99.90
19941;DHT22;10132;50.864;5.176;2022-09-09T04:24:55;15.30;99.90
19941;DHT22;10132;50.864;5.176;2022-09-09T04:26:58;15.30;99.90
19941;DHT22;10132;50.864;5.176;2022-09-09T04:29:00;15.30;99.90
19941;DHT22;10132;50.864;5.176;2022-09-09T04:31:06;15.40;99.90
19941;DHT22;10132;50.864;5.176;2022-09-09T04:33:10;15.40;99.90
19941;DHT22;10132;50.864;5.176;2022-09-09T04:35:12;15.30;99.90
19941;DHT22;10132;50.864;5.176;2022-09-09T04:37:14;15.20;99.90
19941;DHT22;10132;50.864;5.176;2022-09-09T04:39:17;15.20;99.90
19941;DHT22;10132;50.864;5.176;2022-09-09T04:41:20;15.20;99.90
19941;DHT22;10132;50.864;5.176;2022-09-09T04:43:23;15.20;99.90
19941;DHT22;10132;50.864;5.176;2022-09-09T04:45:28;15.30;99.90
19941;DHT22;10132;50.864;5.176;2022-09-09T04:47:30;15.30;99.90
19941;DHT22;10132;50.864;5.176;2022-09-09T04:49:32;15.30;99.90
19941;DHT22;10132;50.864;5.176;2022-09-09T04:51:34;15.30;99.90
19941;DHT22;10132;50.864;5.176;2022-09-09T04:53:36;15.30;99.90
19941;DHT22;10132;50.864;5.176;2022-09-09T04:55:38;15.20;99.90
19941;DHT22;10132;50.864;5.176;2022-09-09T04:57:41;15.20;99.90
19941;DHT22;10132;50.864;5.176;2022-09-09T04:59:44;15.20;99.90
19941;DHT22;10132;50.864;5.176;2022-09-09T05:01:46;15.10;99.90
19941;DHT22;10132;50.864;5.176;2022-09-09T05:03:48;15.20;99.90
19941;DHT22;10132;50.864;5.176;2022-09-09T05:05:50;15.20;99.90
19941;DHT22;10132;50.864;5.176;2022-09-09T05:07:53;15.20;99.90
19941;DHT22;10132;50.864;5.176;2022-09-09T05:09:55;15.20;99.90
19941;DHT22;10132;50.864;5.176;2022-09-09T05:11:57;15.20;99.90
19941;DHT22;10132;50.864;5.176;2022-09-09T05:13:59;15.20;99.90
19941;DHT22;10132;50.864;5.176;2022-09-09T05:16:03;15.20;99.90
19941;DHT22;10132;50.864;5.176;2022-09-09T05:18:05;15.20;99.90
19941;DHT22;10132;50.864;5.176;2022-09-09T05:20:08;15.20;99.90
19941;DHT22;10132;50.864;5.176;2022-09-09T05:22:10;15.30;99.90
19941;DHT22;10132;50.864;5.176;2022-09-09T05:24:12;15.40;99.90
19941;DHT22;10132;50.864;5.176;2022-09-09T05:26:16;15.40;99.90
19941;DHT22;10132;50.864;5.176;2022-09-09T05:28:18;15.50;99.90
19941;DHT22;10132;50.864;5.176;2022-09-09T05:30:20;15.50;99.90
19941;DHT22;10132;50.864;5.176;2022-09-09T05:32:25;15.60;99.90
19941;DHT22;10132;50.864;5.176;2022-09-09T05:34:27;15.60;99.90
19941;DHT22;10132;50.864;5.176;2022-09-09T05:36:29;15.60;99.90
19941;DHT22;10132;50.864;5.176;2022-09-09T05:38:32;15.60;99.90
19941;DHT22;10132;50.864;5.176;2022-09-09T05:40:34;15.70;99.90
19941;DHT22;10132;50.864;5.176;2022-09-09T05:42:35;15.70;99.90
19941;DHT22;10132;50.864;5.176;2022-09-09T05:44:37;15.70;99.90
19941;DHT22;10132;50.864;5.176;2022-09-09T05:46:39;15.60;99.90
19941;DHT22;10132;50.864;5.176;2022-09-09T05:48:44;15.70;99.90
19941;DHT22;10132;50.864;5.176;2022-09-09T05:50:52;15.70;99.90
19941;DHT22;10132;50.864;5.176;2022-09-09T05:52:54;15.70;99.90
19941;DHT22;10132;50.864;5.176;2022-09-09T05:54:56;15.70;99.90
19941;DHT22;10132;50.864;5.176;2022-09-09T05:56:59;15.70;99.90
19941;DHT22;10132;50.864;5.176;2022-09-09T05:59:01;15.80;99.90
19941;DHT22;10132;50.864;5.176;2022-09-09T06:01:06;15.90;99.90
19941;DHT22;10132;50.864;5.176;2022-09-09T06:03:10;15.90;99.90
19941;DHT22;10132;50.864;5.176;2022-09-09T06:05:13;15.90;99.90
19941;DHT22;10132;50.864;5.176;2022-09-09T06:07:15;15.80;99.90
19941;DHT22;10132;50.864;5.176;2022-09-09T06:09:18;15.90;99.90
19941;DHT22;10132;50.864;5.176;2022-09-09T06:11:21;15.90;99.90
19941;DHT22;10132;50.864;5.176;2022-09-09T06:13:23;16.00;99.90
19941;DHT22;10132;50.864;5.176;2022-09-09T06:15:25;16.00;99.90
19941;DHT22;10132;50.864;5.176;2022-09-09T06:17:28;16.20;99.90
19941;DHT22;10132;50.864;5.176;2022-09-09T06:19:30;16.10;99.90
19941;DHT22;10132;50.864;5.176;2022-09-09T06:21:35;16.10;99.90
19941;DHT22;10132;50.864;5.176;2022-09-09T06:23:39;16.10;99.90
19941;DHT22;10132;50.864;5.176;2022-09-09T06:25:42;16.20;99.90
19941;DHT22;10132;50.864;5.176;2022-09-09T06:27:48;16.20;99.90
19941;DHT22;10132;50.864;5.176;2022-09-09T06:29:51;16.40;99.90
19941;DHT22;10132;50.864;5.176;2022-09-09T06:31:53;16.50;99.90
19941;DHT22;10132;50.864;5.176;2022-09-09T06:33:55;16.50;99.90
19941;DHT22;10132;50.864;5.176;2022-09-09T06:35:57;16.60;99.90
19941;DHT22;10132;50.864;5.176;2022-09-09T06:38:00;16.70;99.90
19941;DHT22;10132;50.864;5.176;2022-09-09T06:40:02;16.70;99.90
19941;DHT22;10132;50.864;5.176;2022-09-09T06:42:05;16.90;99.90
19941;DHT22;10132;50.864;5.176;2022-09-09T06:44:09;17.10;99.90
19941;DHT22;10132;50.864;5.176;2022-09-09T06:46:13;17.10;99.90
19941;DHT22;10132;50.864;5.176;2022-09-09T06:48:15;17.00;99.90
19941;DHT22;10132;50.864;5.176;2022-09-09T06:50:17;17.00;99.90
19941;DHT22;10132;50.864;5.176;2022-09-09T06:52:20;16.80;99.90
19941;DHT22;10132;50.864;5.176;2022-09-09T06:54:24;16.70;99.90
19941;DHT22;10132;50.864;5.176;2022-09-09T06:56:27;16.70;99.90
19941;DHT22;10132;50.864;5.176;2022-09-09T06:58:30;16.70;99.90
19941;DHT22;10132;50.864;5.176;2022-09-09T07:00:32;16.70;99.90
19941;DHT22;10132;50.864;5.176;2022-09-09T07:02:34;16.80;99.90
19941;DHT22;10132;50.864;5.176;2022-09-09T07:04:39;16.80;99.90
19941;DHT22;10132;50.864;5.176;2022-09-09T07:06:43;16.70;99.90
19941;DHT22;10132;50.864;5.176;2022-09-09T07:08:49;16.80;99.90
19941;DHT22;10132;50.864;5.176;2022-09-09T07:10:53;16.80;99.90
19941;DHT22;10132;50.864;5.176;2022-09-09T07:12:55;16.90;99.90
19941;DHT22;10132;50.864;5.176;2022-09-09T07:14:57;16.90;99.90
19941;DHT22;10132;50.864;5.176;2022-09-09T07:16:59;17.00;99.90
19941;DHT22;10132;50.864;5.176;2022-09-09T07:19:01;17.10;99.90
19941;DHT22;10132;50.864;5.176;2022-09-09T07:21:03;17.10;99.90
19941;DHT22;10132;50.864;5.176;2022-09-09T07:23:07;17.20;99.90
19941;DHT22;10132;50.864;5.176;2022-09-09T07:25:09;17.20;99.90
19941;DHT22;10132;50.864;5.176;2022-09-09T07:27:12;17.20;99.90
19941;DHT22;10132;50.864;5.176;2022-09-09T07:29:14;17.30;99.90
19941;DHT22;10132;50.864;5.176;2022-09-09T07:31:17;17.40;99.90
19941;DHT22;10132;50.864;5.176;2022-09-09T07:33:20;17.50;99.90
19941;DHT22;10132;50.864;5.176;2022-09-09T07:35:22;17.70;99.90
19941;DHT22;10132;50.864;5.176;2022-09-09T07:37:24;17.70;99.90
19941;DHT22;10132;50.864;5.176;2022-09-09T07:39:26;17.70;99.90
19941;DHT22;10132;50.864;5.176;2022-09-09T07:41:31;17.70;99.90
19941;DHT22;10132;50.864;5.176;2022-09-09T07:43:35;17.80;99.90
19941;DHT22;10132;50.864;5.176;2022-09-09T07:45:38;17.60;99.90
19941;DHT22;10132;50.864;5.176;2022-09-09T07:47:41;17.50;99.90
19941;DHT22;10132;50.864;5.176;2022-09-09T07:49:42;17.30;99.90
19941;DHT22;10132;50.864;5.176;2022-09-09T07:51:47;17.30;99.90
19941;DHT22;10132;50.864;5.176;2022-09-09T07:53:53;17.10;99.90
19941;DHT22;10132;50.864;5.176;2022-09-09T07:55:55;17.10;99.90
19941;DHT22;10132;50.864;5.176;2022-09-09T07:57:57;17.10;99.90
19941;DHT22;10132;50.864;5.176;2022-09-09T08:00:00;17.10;99.90
19941;DHT22;10132;50.864;5.176;2022-09-09T08:02:02;17.10;99.90
19941;DHT22;10132;50.864;5.176;2022-09-09T08:04:06;17.30;99.90
19941;DHT22;10132;50.864;5.176;2022-09-09T08:06:09;17.10;99.90
19941;DHT22;10132;50.864;5.176;2022-09-09T08:08:10;17.00;99.90
19941;DHT22;10132;50.864;5.176;2022-09-09T08:10:12;17.10;99.90
19941;DHT22;10132;50.864;5.176;2022-09-09T08:12:16;17.20;99.90
19941;DHT22;10132;50.864;5.176;2022-09-09T08:14:19;17.10;99.90
19941;DHT22;10132;50.864;5.176;2022-09-09T08:16:24;17.10;99.90
19941;DHT22;10132;50.864;5.176;2022-09-09T08:18:26;17.20;99.90
19941;DHT22;10132;50.864;5.176;2022-09-09T08:20:28;17.20;99.90
19941;DHT22;10132;50.864;5.176;2022-09-09T08:22:30;17.30;99.90
19941;DHT22;10132;50.864;5.176;2022-09-09T08:24:32;17.10;99.90
19941;DHT22;10132;50.864;5.176;2022-09-09T08:26:36;17.10;99.90
19941;DHT22;10132;50.864;5.176;2022-09-09T08:28:38;17.10;99.90
19941;DHT22;10132;50.864;5.176;2022-09-09T08:30:40;17.10;99.90
19941;DHT22;10132;50.864;5.176;2022-09-09T08:32:44;17.20;99.90
19941;DHT22;10132;50.864;5.176;2022-09-09T08:34:46;17.20;99.90
19941;DHT22;10132;50.864;5.176;2022-09-09T08:36:49;17.20;99.90
19941;DHT22;10132;50.864;5.176;2022-09-09T08:38:53;17.10;99.90
19941;DHT22;10132;50.864;5.176;2022-09-09T08:41:02;17.10;99.90
19941;DHT22;10132;50.864;5.176;2022-09-09T08:43:06;17.10;99.90
19941;DHT22;10132;50.864;5.176;2022-09-09T08:45:19;17.20;99.90
19941;DHT22;10132;50.864;5.176;2022-09-09T08:47:28;17.10;99.90
19941;DHT22;10132;50.864;5.176;2022-09-09T08:49:53;17.20;99.90
19941;DHT22;10132;50.864;5.176;2022-09-09T08:52:00;17.30;99.90
19941;DHT22;10132;50.864;5.176;2022-09-09T08:54:03;17.20;99.90
19941;DHT22;10132;50.864;5.176;2022-09-09T08:56:11;17.30;99.90
19941;DHT22;10132;50.864;5.176;2022-09-09T08:58:15;17.40;99.90
19941;DHT22;10132;50.864;5.176;2022-09-09T09:00:17;17.20;99.90
19941;DHT22;10132;50.864;5.176;2022-09-09T09:02:23;17.10;99.90
19941;DHT22;10132;50.864;5.176;2022-09-09T09:04:50;17.10;99.90
19941;DHT22;10132;50.864;5.176;2022-09-09T09:07:05;17.20;99.90
19941;DHT22;10132;50.864;5.176;2022-09-09T09:09:13;17.10;99.90
19941;DHT22;10132;50.864;5.176;2022-09-09T09:11:18;17.20;99.90
19941;DHT22;10132;50.864;5.176;2022-09-09T09:13:25;17.50;99.90
19941;DHT22;10132;50.864;5.176;2022-09-09T09:15:33;17.40;99.90
19941;DHT22;10132;50.864;5.176;2022-09-09T09:17:37;17.30;99.90
19941;DHT22;10132;50.864;5.176;2022-09-09T09:19:40;17.60;99.90
19941;DHT22;10132;50.864;5.176;2022-09-09T09:21:47;17.50;99.90
19941;DHT22;10132;50.864;5.176;2022-09-09T09:23:56;17.70;99.90
19941;DHT22;10132;50.864;5.176;2022-09-09T09:26:00;17.70;99.90
19941;DHT22;10132;50.864;5.176;2022-09-09T09:28:10;17.70;99.90
19941;DHT22;10132;50.864;5.176;2022-09-09T09:30:19;17.90;99.90
19941;DHT22;10132;50.864;5.176;2022-09-09T09:32:22;18.20;99.90
19941;DHT22;10132;50.864;5.176;2022-09-09T09:34:24;18.20;99.90
19941;DHT22;10132;50.864;5.176;2022-09-09T09:36:34;18.10;99.90
19941;DHT22;10132;50.864;5.176;2022-09-09T09:38:37;18.00;99.90
19941;DHT22;10132;50.864;5.176;2022-09-09T09:40:50;18.00;99.90
19941;DHT22;10132;50.864;5.176;2022-09-09T09:42:59;18.20;99.90
19941;DHT22;10132;50.864;5.176;2022-09-09T09:45:08;18.20;99.90
19941;DHT22;10132;50.864;5.176;2022-09-09T09:47:18;18.30;99.90
19941;DHT22;10132;50.864;5.176;2022-09-09T09:49:20;18.00;99.90
19941;DHT22;10132;50.864;5.176;2022-09-09T09:51:23;17.80;99.90
19941;DHT22;10132;50.864;5.176;2022-09-09T09:53:27;17.60;99.90
19941;DHT22;10132;50.864;5.176;2022-09-09T09:55:31;17.60;99.90
19941;DHT22;10132;50.864;5.176;2022-09-09T09:57:36;17.60;99.90
19941;DHT22;10132;50.864;5.176;2022-09-09T09:59:39;17.60;99.90
19941;DHT22;10132;50.864;5.176;2022-09-09T10:01:41;17.80;99.90
19941;DHT22;10132;50.864;5.176;2022-09-09T10:03:51;17.90;99.90
19941;DHT22;10132;50.864;5.176;2022-09-09T10:05:53;17.70;99.90
19941;DHT22;10132;50.864;5.176;2022-09-09T10:08:04;17.60;99.90
19941;DHT22;10132;50.864;5.176;2022-09-09T10:10:12;17.10;99.90
19941;DHT22;10132;50.864;5.176;2022-09-09T10:12:24;16.90;99.90
19941;DHT22;10132;50.864;5.176;2022-09-09T10:14:37;16.90;99.90
19941;DHT22;10132;50.864;5.176;2022-09-09T10:17:03;16.80;99.90
19941;DHT22;10132;50.864;5.176;2022-09-09T10:19:12;16.70;99.90
19941;DHT22;10132;50.864;5.176;2022-09-09T10:21:24;16.50;99.90
19941;DHT22;10132;50.864;5.176;2022-09-09T10:23:46;16.30;99.90
19941;DHT22;10132;50.864;5.176;2022-09-09T10:26:10;16.20;99.90
19941;DHT22;10132;50.864;5.176;2022-09-09T10:28:30;16.20;99.90
19941;DHT22;10132;50.864;5.176;2022-09-09T10:30:42;16.20;99.90
19941;DHT22;10132;50.864;5.176;2022-09-09T10:32:51;16.30;99.90
19941;DHT22;10132;50.864;5.176;2022-09-09T10:35:03;16.50;99.90
19941;DHT22;10132;50.864;5.176;2022-09-09T10:37:15;16.70;99.90
19941;DHT22;10132;50.864;5.176;2022-09-09T10:39:33;16.90;99.90
19941;DHT22;10132;50.864;5.176;2022-09-09T10:41:50;17.10;99.90
19941;DHT22;10132;50.864;5.176;2022-09-09T10:44:06;17.20;99.90
19941;DHT22;10132;50.864;5.176;2022-09-09T10:46:23;17.30;99.90
19941;DHT22;10132;50.864;5.176;2022-09-09T10:48:39;17.30;99.90
19941;DHT22;10132;50.864;5.176;2022-09-09T10:50:54;17.60;99.90
19941;DHT22;10132;50.864;5.176;2022-09-09T10:53:02;17.40;99.90
19941;DHT22;10132;50.864;5.176;2022-09-09T10:55:13;17.60;99.90
19941;DHT22;10132;50.864;5.176;2022-09-09T10:57:24;17.80;99.90
19941;DHT22;10132;50.864;5.176;2022-09-09T10:59:31;17.70;99.90
19941;DHT22;10132;50.864;5.176;2022-09-09T11:01:40;17.70;99.90
19941;DHT22;10132;50.864;5.176;2022-09-09T11:03:49;17.60;99.90
19941;DHT22;10132;50.864;5.176;2022-09-09T11:05:55;17.50;99.90
19941;DHT22;10132;50.864;5.176;2022-09-09T11:08:01;17.80;99.90
19941;DHT22;10132;50.864;5.176;2022-09-09T11:10:11;17.90;99.90
19941;DHT22;10132;50.864;5.176;2022-09-09T11:12:18;17.80;99.90
19941;DHT22;10132;50.864;5.176;2022-09-09T11:14:26;17.70;99.90
19941;DHT22;10132;50.864;5.176;2022-09-09T11:16:33;18.00;99.90
19941;DHT22;10132;50.864;5.176;2022-09-09T11:18:41;18.10;99.90
19941;DHT22;10132;50.864;5.176;2022-09-09T11:20:48;18.00;99.90
19941;DHT22;10132;50.864;5.176;2022-09-09T11:22:53;18.00;99.90
19941;DHT22;10132;50.864;5.176;2022-09-09T11:24:59;18.10;99.90
19941;DHT22;10132;50.864;5.176;2022-09-09T11:27:09;18.30;99.90
19941;DHT22;10132;50.864;5.176;2022-09-09T11:29:27;18.40;99.90
19941;DHT22;10132;50.864;5.176;2022-09-09T11:31:44;18.50;99.90
19941;DHT22;10132;50.864;5.176;2022-09-09T11:36:49;18.40;99.90
19941;DHT22;10132;50.864;5.176;2022-09-09T11:38:58;18.40;99.90
19941;DHT22;10132;50.864;5.176;2022-09-09T11:41:05;18.30;99.90
19941;DHT22;10132;50.864;5.176;2022-09-09T11:43:10;18.30;99.90
19941;DHT22;10132;50.864;5.176;2022-09-09T11:45:22;18.30;99.90
19941;DHT22;10132;50.864;5.176;2022-09-09T11:47:27;18.10;99.90
19941;DHT22;10132;50.864;5.176;2022-09-09T11:49:40;18.20;99.90
19941;DHT22;10132;50.864;5.176;2022-09-09T11:51:42;18.20;99.90
19941;DHT22;10132;50.864;5.176;2022-09-09T11:53:50;18.10;99.90
19941;DHT22;10132;50.864;5.176;2022-09-09T11:56:04;17.90;99.90
19941;DHT22;10132;50.864;5.176;2022-09-09T11:58:15;17.90;99.90
19941;DHT22;10132;50.864;5.176;2022-09-09T12:00:32;17.90;99.90
19941;DHT22;10132;50.864;5.176;2022-09-09T12:02:35;18.00;99.90
19941;DHT22;10132;50.864;5.176;2022-09-09T12:04:39;17.60;99.90
19941;DHT22;10132;50.864;5.176;2022-09-09T12:06:44;17.40;99.90
19941;DHT22;10132;50.864;5.176;2022-09-09T12:08:53;17.30;99.90
19941;DHT22;10132;50.864;5.176;2022-09-09T12:10:58;17.70;99.90
19941;DHT22;10132;50.864;5.176;2022-09-09T12:13:08;17.60;99.90
19941;DHT22;10132;50.864;5.176;2022-09-09T12:15:24;17.80;99.90
19941;DHT22;10132;50.864;5.176;2022-09-09T12:17:29;18.00;99.90
19941;DHT22;10132;50.864;5.176;2022-09-09T12:19:32;18.40;99.90
19941;DHT22;10132;50.864;5.176;2022-09-09T12:21:37;18.80;99.90
19941;DHT22;10132;50.864;5.176;2022-09-09T12:23:46;18.80;99.90
19941;DHT22;10132;50.864;5.176;2022-09-09T12:25:59;18.80;99.90
19941;DHT22;10132;50.864;5.176;2022-09-09T12:28:09;18.90;99.90
19941;DHT22;10132;50.864;5.176;2022-09-09T12:30:14;19.20;99.90
19941;DHT22;10132;50.864;5.176;2022-09-09T12:32:22;19.20;99.90
19941;DHT22;10132;50.864;5.176;2022-09-09T12:34:39;19.10;99.90
19941;DHT22;10132;50.864;5.176;2022-09-09T12:36:43;19.10;99.90
19941;DHT22;10132;50.864;5.176;2022-09-09T12:38:48;19.00;99.90
19941;DHT22;10132;50.864;5.176;2022-09-09T12:40:56;19.00;99.90
19941;DHT22;10132;50.864;5.176;2022-09-09T12:42:58;19.00;99.90
19941;DHT22;10132;50.864;5.176;2022-09-09T12:45:03;19.10;99.90
19941;DHT22;10132;50.864;5.176;2022-09-09T12:47:09;18.90;99.90
19941;DHT22;10132;50.864;5.176;2022-09-09T12:49:28;19.10;99.90
19941;DHT22;10132;50.864;5.176;2022-09-09T12:51:34;19.20;99.90
19941;DHT22;10132;50.864;5.176;2022-09-09T12:53:37;19.10;99.90
19941;DHT22;10132;50.864;5.176;2022-09-09T12:55:48;19.40;99.90
19941;DHT22;10132;50.864;5.176;2022-09-09T12:57:52;19.60;99.90
19941;DHT22;10132;50.864;5.176;2022-09-09T13:00:05;19.50;99.90
19941;DHT22;10132;50.864;5.176;2022-09-09T13:02:18;19.40;99.90
19941;DHT22;10132;50.864;5.176;2022-09-09T13:04:21;19.70;99.90
19941;DHT22;10132;50.864;5.176;2022-09-09T13:06:24;20.10;99.90
19941;DHT22;10132;50.864;5.176;2022-09-09T13:08:27;20.20;99.90
19941;DHT22;10132;50.864;5.176;2022-09-09T13:10:31;20.50;99.90
19941;DHT22;10132;50.864;5.176;2022-09-09T13:12:33;20.30;99.90
19941;DHT22;10132;50.864;5.176;2022-09-09T13:14:37;20.40;99.90
19941;DHT22;10132;50.864;5.176;2022-09-09T13:16:39;20.70;99.90
19941;DHT22;10132;50.864;5.176;2022-09-09T13:18:41;20.40;99.90